createdAt,value
2022-09-23T00:01:26.616Z,966.42
2022-09-23T00:06:28.675Z,966.4
2022-09-23T00:11:29.903Z,966.4
2022-09-23T00:16:31.500Z,966.39
2022-09-23T00:21:33.316Z,966.3
2022-09-23T00:26:34.838Z,966.29
2022-09-23T00:31:36.408Z,966.26
2022-09-23T00:36:38.221Z,966.24
2022-09-23T00:41:40.068Z,966.26
2022-09-23T00:46:41.584Z,966.22
2022-09-23T00:51:43.106Z,966.19
2022-09-23T00:56:45.164Z,966.17
2022-09-23T01:01:47.311Z,966.12
2022-09-23T01:06:49.342Z,966.07
2022-09-23T01:11:51.024Z,966.01
2022-09-23T01:16:53.284Z,965.97
2022-09-23T01:21:54.535Z,965.94
2022-09-23T01:26:56.201Z,965.92
2022-09-23T01:31:58.236Z,965.84
2022-09-23T01:37:00.145Z,965.85
2022-09-23T01:42:02.291Z,965.82
2022-09-23T01:47:03.912Z,965.77
2022-09-23T01:52:05.482Z,965.74
2022-09-23T01:57:07.462Z,965.64
2022-09-23T02:02:09.049Z,965.64
2022-09-23T02:07:10.777Z,965.67
2022-09-23T02:12:12.527Z,965.65
2022-09-23T02:17:13.910Z,965.69
2022-09-23T02:22:16.042Z,965.74
2022-09-23T02:27:17.528Z,965.76
2022-09-23T02:32:19.274Z,965.76
2022-09-23T03:12:32.111Z,965.53
2022-09-23T03:22:35.228Z,965.51
2022-09-23T03:27:37.386Z,965.49
2022-09-23T03:32:39.025Z,965.45
2022-09-23T03:32:45.457Z,965.48
2022-09-23T03:37:47.563Z,965.49
2022-09-23T03:42:49.663Z,965.51
2022-09-23T03:47:51.703Z,965.43
2022-09-23T03:52:53.109Z,965.45
2022-09-23T03:57:54.758Z,965.44
2022-09-23T04:02:56.286Z,965.44
2022-09-23T04:07:57.693Z,965.36
2022-09-23T04:12:58.935Z,965.39
2022-09-23T04:18:00.664Z,965.35
2022-09-23T04:23:02.446Z,965.35
2022-09-23T04:28:03.716Z,965.33
2022-09-23T04:33:05.778Z,965.28
2022-09-23T04:38:07.666Z,965.32
2022-09-23T04:43:12.927Z,965.24
2022-09-23T04:48:10.910Z,965.28
2022-09-23T04:53:12.725Z,965.33
2022-09-23T04:58:23.271Z,965.34
2022-09-23T05:03:15.692Z,965.37
2022-09-23T05:08:25.319Z,965.37
2022-09-23T05:13:19.434Z,965.42
2022-09-23T05:18:21.153Z,965.44
2022-09-23T05:23:22.545Z,965.43
2022-09-23T05:28:23.994Z,965.39
2022-09-23T05:33:26.120Z,965.4
2022-09-23T05:38:27.418Z,965.44
2022-09-23T05:43:29.297Z,965.45
2022-09-23T05:48:31.025Z,965.44
2022-09-23T05:53:32.448Z,965.48
2022-09-23T05:58:34.170Z,965.46
2022-09-23T06:03:36.192Z,965.45
2022-09-23T06:08:38.235Z,965.41
2022-09-23T06:13:39.491Z,965.36
2022-09-23T06:18:41.188Z,965.33
2022-09-23T06:23:42.610Z,965.41
2022-09-23T06:28:44.771Z,965.36
2022-09-23T06:33:46.260Z,965.3
2022-09-23T06:38:47.724Z,965.29
2022-09-23T06:43:49.860Z,965.25
2022-09-23T06:48:51.318Z,965.27
2022-09-23T06:53:52.502Z,965.35
2022-09-23T06:58:53.894Z,965.41
2022-09-23T07:03:55.368Z,965.33
2022-09-23T07:08:56.966Z,965.33
2022-09-23T07:13:59.102Z,965.33
2022-09-23T07:19:00.818Z,965.34
2022-09-23T07:24:02.380Z,965.33
2022-09-23T07:29:04.333Z,965.27
2022-09-23T07:34:06.369Z,965.31
2022-09-23T07:39:08.020Z,965.32
2022-09-23T07:44:09.883Z,965.32
2022-09-23T07:49:11.374Z,965.36
2022-09-23T07:54:12.753Z,965.36
2022-09-23T07:59:14.515Z,965.41
2022-09-23T08:04:16.665Z,965.36
2022-09-23T08:09:17.855Z,965.4
2022-09-23T08:14:19.830Z,965.38
2022-09-23T08:19:21.821Z,965.39
2022-09-23T08:24:23.538Z,965.41
2022-09-23T08:29:25.460Z,965.41
2022-09-23T08:34:27.604Z,965.33
2022-09-23T08:39:37.287Z,965.32
2022-09-23T08:44:30.701Z,965.29
2022-09-23T08:49:31.928Z,965.28
2022-09-23T08:54:33.292Z,965.27
2022-09-23T08:59:34.641Z,965.23
2022-09-23T09:04:35.950Z,965.22
2022-09-23T09:09:38.068Z,965.17
2022-09-23T09:14:39.863Z,965.12
2022-09-23T09:19:41.465Z,965.14
2022-09-23T09:24:44.389Z,965.08
2022-09-23T09:29:45.189Z,965.04
2022-09-23T09:34:48.952Z,964.9
2022-09-23T09:39:48.606Z,964.81
2022-09-23T09:44:50.344Z,964.77
2022-09-23T09:49:51.906Z,964.72
2022-09-23T09:54:53.814Z,964.73
2022-09-23T09:59:55.749Z,964.7
2022-09-23T10:04:57.888Z,964.64
2022-09-23T10:10:05.943Z,964.59
2022-09-23T10:15:00.876Z,964.6
2022-09-23T10:20:02.658Z,964.51
2022-09-23T10:25:04.315Z,964.5
2022-09-23T10:30:06.211Z,964.45
2022-09-23T10:35:07.884Z,964.45
2022-09-23T10:40:09.530Z,964.41
2022-09-23T10:45:11.036Z,964.37
2022-09-23T10:50:13.220Z,964.35
2022-09-23T10:55:15.063Z,964.3
2022-09-23T11:00:16.452Z,964.25
2022-09-23T11:05:18.372Z,964.18
2022-09-23T11:15:21.085Z,964.04
2022-09-23T11:20:23.049Z,964.1
2022-09-23T11:25:25.080Z,964.02
2022-09-23T11:30:26.778Z,963.94
2022-09-23T11:35:28.779Z,963.87
2022-09-23T11:40:30.598Z,963.83
2022-09-23T11:45:32.090Z,963.78
2022-09-23T11:50:33.428Z,963.67
2022-09-23T11:55:35.355Z,963.66
2022-09-23T12:00:36.594Z,963.57
2022-09-23T12:05:38.326Z,963.53
2022-09-23T12:10:39.621Z,963.55
2022-09-23T12:15:41.784Z,963.55
2022-09-23T12:20:42.996Z,963.5
2022-09-23T12:25:44.261Z,963.44
2022-09-23T12:30:45.907Z,963.37
2022-09-23T12:35:47.811Z,963.3
2022-09-23T12:40:49.611Z,963.23
2022-09-23T12:45:51.519Z,963.16
2022-09-23T12:50:52.926Z,963.15
2022-09-23T12:55:54.534Z,963.07
2022-09-23T13:00:56.527Z,963.06
2022-09-23T13:05:58.217Z,963
2022-09-23T13:10:59.671Z,962.94
2022-09-23T13:16:01.859Z,962.85
2022-09-23T13:21:03.661Z,962.81
2022-09-23T13:26:05.550Z,962.75
2022-09-23T13:31:07.003Z,962.69
2022-09-23T13:36:08.925Z,962.59
2022-09-23T13:41:10.950Z,962.55
2022-09-23T13:46:12.869Z,962.51
2022-09-23T13:51:14.541Z,962.48
2022-09-23T13:56:15.727Z,962.48
2022-09-23T14:01:17.879Z,962.45
2022-09-23T14:06:19.069Z,962.42
2022-09-23T14:11:20.471Z,962.36
2022-09-23T14:16:22.653Z,962.34
2022-09-23T14:21:23.850Z,962.29
2022-09-23T14:26:25.675Z,962.28
2022-09-23T14:31:27.503Z,962.19
2022-09-23T14:36:28.654Z,962.16
2022-09-23T14:41:30.663Z,962.13
2022-09-23T14:46:32.704Z,962.05
2022-09-23T14:51:34.757Z,962.04
2022-09-23T14:56:36.103Z,962.04
2022-09-23T15:01:37.429Z,962.04
2022-09-23T15:06:38.952Z,961.94
2022-09-23T15:11:40.984Z,961.89
2022-09-23T15:16:42.964Z,961.84
2022-09-23T15:21:44.927Z,961.85
2022-09-23T15:26:46.525Z,961.8
2022-09-23T15:31:48.385Z,961.79
2022-09-23T15:36:49.839Z,961.75
2022-09-23T15:41:51.168Z,961.73
2022-09-23T15:46:52.740Z,961.74
2022-09-23T15:51:54.526Z,961.73
2022-09-23T15:56:56.206Z,961.71
2022-09-23T16:01:57.530Z,961.75
2022-09-23T16:06:59.055Z,961.72
2022-09-23T16:12:00.335Z,961.78
2022-09-23T16:17:02.011Z,961.77
2022-09-23T16:22:04.164Z,961.77
2022-09-23T16:27:05.954Z,961.77
2022-09-23T16:32:07.839Z,961.81
2022-09-23T16:37:09.280Z,961.83
2022-09-23T16:42:10.494Z,961.81
2022-09-23T16:47:12.665Z,961.83
2022-09-23T16:52:14.047Z,961.87
2022-09-23T16:57:15.282Z,961.87
2022-09-23T17:02:16.679Z,961.82
2022-09-23T17:07:18.225Z,961.82
2022-09-23T17:37:29.241Z,961.99
2022-09-23T17:47:33.550Z,962.04
2022-09-23T18:12:39.430Z,962.03
2022-09-23T18:22:42.607Z,962.09
2022-09-23T18:27:44.224Z,962.11
2022-09-23T18:32:45.554Z,962.03
2022-09-23T18:42:49.452Z,961.96
2022-09-23T18:47:50.734Z,962.03
2022-09-23T18:52:52.837Z,962.12
2022-09-23T18:57:54.201Z,962.13
2022-09-23T19:02:56.245Z,962.15
2022-09-23T19:07:57.897Z,962.17
2022-09-23T19:12:59.481Z,962.15
2022-09-23T19:18:01.114Z,962.08
2022-09-23T19:23:03.017Z,962.05
2022-09-23T19:28:04.856Z,962.02
2022-09-23T19:33:06.617Z,962.01
2022-09-23T19:38:08.192Z,961.96
2022-09-23T19:43:09.333Z,961.91
2022-09-23T19:48:11.252Z,961.85
2022-09-23T19:53:12.654Z,961.89
2022-09-23T19:58:14.643Z,961.89
2022-09-23T20:03:16.585Z,961.89
2022-09-23T20:08:18.764Z,961.9
2022-09-23T20:13:20.874Z,961.92
2022-09-23T20:18:22.837Z,961.81
2022-09-23T20:23:31.116Z,961.79
2022-09-23T20:28:32.949Z,961.74
2022-09-23T20:33:34.723Z,961.77
2022-09-23T20:38:36.369Z,961.76
2022-09-23T20:43:38.167Z,961.74
2022-09-23T20:48:39.548Z,961.74
2022-09-23T20:53:41.103Z,961.64
2022-09-23T20:58:43.274Z,961.62
2022-09-23T21:03:45.076Z,961.63
2022-09-23T21:08:46.584Z,961.56
2022-09-23T21:13:48.187Z,961.56
2022-09-23T21:18:50.160Z,961.52
2022-09-23T21:23:51.992Z,961.46
2022-09-23T21:28:53.482Z,961.51
2022-09-23T21:33:55.158Z,961.47
2022-09-23T21:38:56.833Z,961.48
2022-09-23T21:43:58.937Z,961.46
2022-09-23T21:49:00.493Z,961.49
2022-09-23T21:54:02.417Z,961.49
2022-09-23T21:59:03.757Z,961.37
2022-09-23T22:14:09.294Z,961.35
2022-09-23T22:19:11.223Z,961.37
2022-09-23T22:24:13.242Z,961.33
2022-09-23T22:29:14.866Z,961.31
2022-09-23T22:34:31.189Z,961.27
2022-09-23T22:39:18.454Z,961.19
2022-09-23T22:44:20.669Z,961.25
2022-09-23T22:49:21.915Z,961.07
2022-09-23T22:54:23.759Z,961.24
2022-09-23T22:59:25.225Z,961.14
2022-09-23T23:04:27.255Z,961.15
2022-09-23T23:09:29.114Z,961.15
2022-09-23T23:14:31.189Z,961.01
2022-09-23T23:19:32.410Z,961.06
2022-09-23T23:24:34.364Z,960.99
2022-09-23T23:29:36.101Z,960.97
2022-09-23T23:34:37.809Z,960.91
2022-09-23T23:39:39.363Z,960.95
2022-09-23T23:44:41.346Z,960.97
2022-09-23T23:49:42.717Z,960.89
2022-09-23T23:54:44.735Z,960.85
2022-09-23T23:59:46.892Z,960.76
